Vancouver, WA

11:06 PM PDT on October 20, 2014 (GMT -0700)
Portland International | Change Station
CLOSE
Current Station
Airport
Location: Portland,
Elevation: 16 ft
Nearby Weather Stations

Elev 16 ft 45.60 °N, 122.61 °W | Updated 13 minutes ago

Mostly Cloudy
Mostly Cloudy
54 °F
Feels Like 54 °F
N
8
Wind Variable Wind from East

Today
High -- | Low -- °F
--% Chance of Precip.
Yesterday
High -- | Low -- °F
Precip. -- in
7:34 AM 6:16 PM
Waning Crescent, 7% visible
Pressure 29.86 in
Visibility 10.0 miles
Clouds Scattered Clouds 6000 ft
Dew Point 52 °F
Humidity 93%
Rainfall 0.15 in
Snow Depth Not available.
UV 0 out of 12
Pollen .40 out of 12
Air Quality Not available.
Flu Activity Sporadic
METAR KPDX 210553Z 09007KT 10SM SCT060 12/11 A2987 RMK AO2 SLP112 60008 T01220111 10156 20122 51015

More Conditions Fewer Conditions

Pressure 29.86 in
Visibility 10.0 miles
Clouds Scattered Clouds 6000 ft
Dew Point 52 °F
Humidity 93%
Rainfall 0.15 in
Snow Depth Not available.
UV 0 out of 12
Pollen .40 out of 12
Air Quality Not available.
Flu Activity Sporadic
METAR KPDX 210553Z 09007KT 10SM SCT060 12/11 A2987 RMK AO2 SLP112 60008 T01220111 10156 20122 51015

More Conditions Fewer Conditions

10-Day Weather Forecast

Almanac

Astronomy

Oct. 20, 2014 Rise Set
Actual Time 7:34 AM PDT 6:16 PM PDT
Civil Twilight 7:03 AM PDT 6:46 PM PDT
Nautical Twilight 6:29 AM PDT 7:20 PM PDT
Astronomical Twilight 5:54 AM PDT 7:55 PM PDT
Moon 4:18 AM PDT (10/20) 4:49 PM PDT (10/20)
Length of Visible Light 11h 42m
Length of Day
10h 42m
Tomorrow will be 3m 3s shorter.
Waning Crescent, 7% of the Moon is Illuminated
Oct 21
Waning Crescent
Oct 23
New
Oct 30
First Quarter
Nov 6
Full
Nov 14
Last Quarter

Yesterday's Extremes

State Highs State Lows

Community

WunderPhotos

Upload Photos

1,763,614 photos uploaded!

Nearby

Snow Depth

Station Depth Elevation
June Lake 0 in 3340 ft
Sheep Canyon 0 in 4030 ft
Swift Creek 0 in 3770 ft
Spencer Meadow 0 in 3400 ft
Surprise Lakes 1 in 4250 ft

Earthquake Activity

City Distance Mag. Time & Date
No recent earthquake activity has been reported nearby.
Minimum magnitude displayed is 2.5.

Coastal Water Temperatures

Place Temperature
No Stations Reporting

Nearby Weather Stations